createdAt,value
2022-08-07T00:01:43.249Z,81.30
2022-08-07T00:03:53.066Z,81.20
2022-08-07T00:06:32.884Z,81.10
2022-08-07T00:09:16.278Z,81.20
2022-08-07T00:11:53.979Z,81.00
2022-08-07T00:14:29.866Z,81.30
2022-08-07T00:16:59.504Z,81.20
2022-08-07T00:19:34.074Z,81.40
2022-08-07T00:22:24.371Z,81.30
2022-08-07T00:25:16.705Z,80.90
2022-08-07T00:27:53.485Z,81.40
2022-08-07T00:30:27.934Z,81.80
2022-08-07T00:32:56.750Z,81.90
2022-08-07T00:35:23.588Z,81.30
2022-08-07T00:37:50.924Z,81.80
2022-08-07T00:40:39.209Z,81.50
2022-08-07T00:43:10.004Z,81.70
2022-08-07T00:45:41.948Z,82.10
2022-08-07T00:48:13.428Z,81.20
2022-08-07T00:50:51.120Z,81.10
2022-08-07T00:53:20.545Z,81.10
2022-08-07T00:56:00.759Z,81.10
2022-08-07T00:58:49.831Z,82.60
2022-08-07T01:01:20.445Z,81.70
2022-08-07T01:03:55.954Z,81.60
2022-08-07T01:06:28.684Z,81.90
2022-08-07T01:08:58.299Z,81.90
2022-08-07T01:12:09.428Z,81.10
2022-08-07T01:14:15.362Z,81.40
2022-08-07T01:16:46.808Z,81.50
2022-08-07T01:19:19.277Z,81.70
2022-08-07T01:21:48.301Z,81.60
2022-08-07T01:24:18.776Z,81.40
2022-08-07T01:26:51.730Z,81.50
2022-08-07T01:29:20.155Z,81.20
2022-08-07T01:31:49.507Z,81.30
2022-08-07T01:34:18.617Z,81.40
2022-08-07T01:36:52.975Z,82.30
2022-08-07T01:39:39.671Z,82.80
2022-08-07T01:42:40.001Z,82.50
2022-08-07T01:45:09.628Z,82.30
2022-08-07T01:48:17.839Z,83.00
2022-08-07T01:50:30.765Z,82.70
2022-08-07T01:53:00.168Z,81.50
2022-08-07T01:55:33.318Z,81.60
2022-08-07T01:58:27.166Z,82.50
2022-08-07T02:01:09.524Z,82.10
2022-08-07T02:03:51.244Z,82.30
2022-08-07T02:06:32.058Z,82.20
2022-08-07T02:09:04.253Z,81.90
2022-08-07T02:12:05.034Z,81.80
2022-08-07T02:14:36.146Z,81.80
2022-08-07T02:17:07.904Z,82.10
2022-08-07T02:20:04.211Z,82.10
2022-08-07T02:22:26.246Z,82.60
2022-08-07T02:24:57.451Z,82.60
2022-08-07T02:27:26.368Z,82.00
2022-08-07T02:30:07.352Z,81.50
2022-08-07T02:32:39.411Z,82.20
2022-08-07T02:36:28.644Z,82.10
2022-08-07T02:38:14.406Z,82.10
2022-08-07T02:40:46.495Z,82.30
2022-08-07T02:43:15.840Z,81.10
2022-08-07T02:45:58.290Z,81.50
2022-08-07T02:48:26.752Z,82.10
2022-08-07T02:50:56.113Z,81.40
2022-08-07T02:53:38.549Z,82.20
2022-08-07T02:56:17.532Z,82.50
2022-08-07T02:58:49.966Z,82.30
2022-08-07T03:01:35.910Z,82.40
2022-08-07T03:04:06.989Z,82.50
2022-08-07T03:06:35.686Z,82.20
2022-08-07T03:09:07.884Z,81.70
2022-08-07T03:11:51.783Z,82.30
2022-08-07T03:14:25.314Z,82.40
2022-08-07T03:16:52.415Z,81.80
2022-08-07T03:19:20.308Z,82.40
2022-08-07T03:21:50.501Z,82.40
2022-08-07T03:24:26.872Z,82.50
2022-08-07T03:26:59.788Z,82.30
2022-08-07T03:29:37.384Z,82.30
2022-08-07T03:32:08.317Z,82.40
2022-08-07T03:34:39.441Z,82.50
2022-08-07T03:37:11.906Z,83.20
2022-08-07T03:39:46.416Z,82.40
2022-08-07T03:42:27.217Z,82.60
2022-08-07T03:44:57.813Z,83.00
2022-08-07T03:47:25.998Z,82.60
2022-08-07T03:49:56.781Z,82.50
2022-08-07T03:52:29.279Z,82.50
2022-08-07T03:55:06.703Z,82.70
2022-08-07T03:58:32.516Z,82.20
2022-08-07T04:00:29.414Z,82.40
2022-08-07T04:02:59.083Z,82.20
2022-08-07T04:05:39.750Z,82.60
2022-08-07T04:08:16.354Z,82.40
2022-08-07T04:10:54.573Z,82.70
2022-08-07T04:14:10.294Z,82.40
2022-08-07T04:16:31.274Z,82.40
2022-08-07T04:19:12.638Z,82.70
2022-08-07T04:21:59.414Z,82.10
2022-08-07T04:24:38.666Z,83.10
2022-08-07T04:27:06.196Z,82.90
2022-08-07T04:29:58.590Z,83.50
2022-08-07T04:32:34.662Z,83.90
2022-08-07T04:35:05.524Z,83.50
2022-08-07T04:38:00.951Z,82.90
2022-08-07T04:40:29.644Z,82.30
2022-08-07T04:43:01.284Z,82.30
2022-08-07T04:45:57.562Z,82.20
2022-08-07T04:48:26.544Z,82.30
2022-08-07T04:51:11.287Z,82.40
2022-08-07T04:54:38.202Z,82.40
2022-08-07T04:58:09.702Z,82.40
2022-08-07T05:00:25.562Z,82.50
2022-08-07T05:03:17.108Z,82.30
2022-08-07T05:06:19.937Z,81.90
2022-08-07T05:09:15.724Z,81.30
2022-08-07T05:11:57.171Z,81.00
2022-08-07T05:14:52.380Z,80.90
2022-08-07T05:17:52.932Z,81.20
2022-08-07T05:20:17.040Z,80.30
2022-08-07T05:22:47.565Z,80.10
2022-08-07T05:25:36.604Z,79.80
2022-08-07T05:28:20.228Z,79.60
2022-08-07T05:30:52.212Z,79.90
2022-08-07T05:33:21.210Z,79.70
2022-08-07T05:35:52.889Z,79.60
2022-08-07T05:38:59.384Z,79.00
2022-08-07T05:41:14.115Z,79.10
2022-08-07T05:44:08.073Z,78.40
2022-08-07T05:46:34.959Z,77.80
2022-08-07T05:49:11.954Z,76.90
2022-08-07T05:51:42.254Z,76.70
2022-08-07T05:54:30.071Z,76.40
2022-08-07T05:56:59.043Z,76.20
2022-08-07T05:59:27.425Z,75.80
2022-08-07T06:01:57.853Z,75.40
2022-08-07T06:04:29.903Z,75.00
2022-08-07T06:07:03.486Z,74.50
2022-08-07T06:10:03.710Z,74.10
2022-08-07T06:12:20.923Z,73.60
2022-08-07T06:14:55.189Z,73.20
2022-08-07T06:17:37.407Z,73.10
2022-08-07T06:20:12.749Z,72.80
2022-08-07T06:23:02.161Z,72.40
2022-08-07T06:25:41.466Z,71.90
2022-08-07T06:28:28.046Z,71.50
2022-08-07T06:30:58.052Z,71.10
2022-08-07T06:33:26.566Z,71.30
2022-08-07T06:36:13.004Z,69.00
2022-08-07T06:38:51.601Z,69.20
2022-08-07T06:42:01.753Z,69.40
2022-08-07T06:44:34.086Z,66.50
2022-08-07T06:47:12.329Z,62.30
2022-08-07T06:49:51.865Z,61.70
2022-08-07T06:52:31.907Z,60.00
2022-08-07T06:55:33.827Z,59.70
2022-08-07T06:58:09.482Z,60.30
2022-08-07T07:00:42.474Z,59.90
2022-08-07T07:03:13.636Z,59.40
2022-08-07T07:06:02.869Z,59.50
2022-08-07T07:08:33.016Z,57.20
2022-08-07T07:11:01.285Z,56.90
2022-08-07T07:13:57.434Z,58.00
2022-08-07T07:16:30.402Z,56.90
2022-08-07T07:19:11.421Z,54.40
2022-08-07T07:22:04.971Z,55.50
2022-08-07T07:24:43.020Z,55.70
2022-08-07T07:27:13.393Z,54.90
2022-08-07T07:30:08.816Z,57.60
2022-08-07T07:32:38.641Z,56.90
2022-08-07T07:35:06.792Z,57.30
2022-08-07T07:37:47.368Z,59.90
2022-08-07T07:40:26.041Z,61.30
2022-08-07T07:42:55.764Z,59.00
2022-08-07T07:46:40.020Z,58.40
2022-08-07T07:48:24.307Z,60.60
2022-08-07T07:51:08.053Z,58.40
2022-08-07T07:53:51.705Z,59.20
2022-08-07T07:56:30.103Z,59.60
2022-08-07T07:59:04.221Z,60.80
2022-08-07T08:02:01.999Z,61.10
2022-08-07T08:04:25.429Z,61.10
2022-08-07T08:06:54.296Z,61.00
2022-08-07T08:09:29.669Z,61.40
2022-08-07T08:12:01.557Z,63.60
2022-08-07T08:14:31.952Z,65.80
2022-08-07T08:17:55.781Z,63.40
2022-08-07T08:20:17.829Z,63.90
2022-08-07T08:23:00.570Z,62.90
2022-08-07T08:25:49.714Z,66.30
2022-08-07T08:28:24.168Z,64.70
2022-08-07T08:31:15.874Z,63.00
2022-08-07T08:33:50.114Z,64.10
2022-08-07T08:36:29.572Z,62.40
2022-08-07T08:39:02.049Z,64.50
2022-08-07T08:41:57.362Z,65.00
2022-08-07T08:44:29.321Z,64.60
2022-08-07T08:47:10.059Z,65.50
2022-08-07T08:49:46.341Z,63.10
2022-08-07T08:52:24.195Z,63.40
2022-08-07T08:55:54.993Z,62.20
2022-08-07T08:58:24.876Z,63.30
2022-08-07T09:01:15.000Z,63.90
2022-08-07T09:03:55.913Z,62.00
2022-08-07T09:06:55.655Z,62.80
2022-08-07T09:09:43.586Z,69.60
2022-08-07T09:12:34.199Z,62.60
2022-08-07T09:16:23.873Z,63.60
2022-08-07T09:18:38.630Z,62.70
2022-08-07T09:21:34.197Z,62.60
2022-08-07T09:24:53.950Z,63.90
2022-08-07T09:27:30.319Z,66.50
2022-08-07T09:30:08.322Z,63.60
2022-08-07T09:32:56.169Z,63.60
2022-08-07T09:36:01.317Z,62.20
2022-08-07T09:39:00.446Z,66.00
2022-08-07T09:42:03.030Z,67.20
2022-08-07T09:47:27.829Z,62.30
2022-08-07T09:48:02.824Z,61.20
2022-08-07T09:51:26.074Z,60.20
2022-08-07T09:54:02.541Z,61.20
2022-08-07T09:57:06.964Z,64.40
2022-08-07T10:00:04.704Z,61.50
2022-08-07T10:02:56.478Z,61.60
2022-08-07T10:06:09.005Z,60.40
2022-08-07T10:09:03.634Z,61.90
2022-08-07T10:12:01.807Z,69.00
2022-08-07T10:15:01.406Z,67.50
2022-08-07T10:18:02.508Z,61.30
2022-08-07T10:21:19.509Z,68.00
2022-08-07T10:24:23.077Z,63.50
2022-08-07T10:27:45.993Z,67.10
2022-08-07T10:30:19.995Z,69.20
2022-08-07T10:33:01.812Z,62.90
2022-08-07T10:35:55.870Z,64.00
2022-08-07T10:38:36.059Z,66.20
2022-08-07T10:41:47.027Z,63.70
2022-08-07T10:44:39.079Z,66.90
2022-08-07T10:47:52.854Z,65.90
2022-08-07T10:50:30.703Z,66.80
2022-08-07T10:53:10.822Z,64.10
2022-08-07T10:55:50.570Z,64.60
2022-08-07T10:58:33.209Z,67.50
2022-08-07T11:01:22.320Z,66.00
2022-08-07T11:04:31.412Z,64.50
2022-08-07T11:07:24.631Z,64.40
2022-08-07T11:10:11.079Z,65.90
2022-08-07T11:12:44.812Z,64.80
2022-08-07T11:15:31.450Z,64.50
2022-08-07T11:18:04.864Z,63.60
2022-08-07T11:20:43.204Z,65.20
2022-08-07T11:23:36.390Z,63.50
2022-08-07T11:26:28.275Z,65.10
2022-08-07T11:29:40.842Z,66.80
2022-08-07T11:32:25.467Z,65.20
2022-08-07T11:35:02.583Z,66.30
2022-08-07T11:38:12.653Z,66.10
2022-08-07T11:41:28.254Z,63.30
2022-08-07T11:44:12.645Z,64.10
2022-08-07T11:47:15.692Z,65.80
2022-08-07T11:50:31.489Z,63.70
2022-08-07T11:53:43.210Z,64.10
2022-08-07T11:56:56.895Z,67.50
2022-08-07T12:00:12.420Z,62.80
2022-08-07T12:03:44.763Z,66.10
2022-08-07T12:06:56.317Z,63.10
2022-08-07T12:09:41.668Z,61.20
2022-08-07T12:12:22.986Z,61.00
2022-08-07T12:15:08.057Z,61.80
2022-08-07T12:17:59.228Z,61.90
2022-08-07T12:20:35.113Z,59.10
2022-08-07T12:24:05.687Z,60.60
2022-08-07T12:26:46.970Z,60.20
2022-08-07T12:29:40.344Z,63.50
2022-08-07T12:32:15.985Z,60.60
2022-08-07T12:34:49.133Z,58.30
2022-08-07T12:37:23.299Z,58.20
2022-08-07T12:39:58.869Z,57.70
2022-08-07T12:42:28.620Z,59.20
2022-08-07T12:45:05.751Z,57.80
2022-08-07T12:47:43.976Z,58.10
2022-08-07T12:50:40.296Z,56.10
2022-08-07T12:54:24.280Z,59.80
2022-08-07T12:56:34.677Z,56.40
2022-08-07T12:59:08.278Z,56.90
2022-08-07T13:01:54.643Z,57.20
2022-08-07T13:04:34.577Z,57.50
2022-08-07T13:08:12.654Z,57.70
2022-08-07T13:10:39.671Z,56.90
2022-08-07T13:13:48.143Z,55.90
2022-08-07T13:16:17.655Z,56.00
2022-08-07T13:19:21.665Z,60.20
2022-08-07T13:22:28.389Z,57.10
2022-08-07T13:25:04.002Z,59.70
2022-08-07T13:28:11.206Z,55.40
2022-08-07T13:30:43.918Z,55.20
2022-08-07T13:34:30.139Z,55.60
2022-08-07T13:36:43.540Z,55.00
2022-08-07T13:39:49.322Z,55.90
2022-08-07T13:42:10.190Z,55.90
2022-08-07T13:44:39.535Z,55.90
2022-08-07T13:47:15.862Z,54.80
2022-08-07T13:50:35.670Z,57.20
2022-08-07T13:52:43.163Z,55.10
2022-08-07T13:55:25.472Z,55.30
2022-08-07T13:58:31.464Z,60.60
2022-08-07T14:01:13.578Z,54.80
2022-08-07T14:04:07.370Z,56.90
2022-08-07T14:06:35.420Z,61.40
2022-08-07T14:09:04.662Z,54.70
2022-08-07T14:11:53.184Z,55.10
2022-08-07T14:14:33.816Z,58.00
2022-08-07T14:17:32.375Z,58.10
2022-08-07T14:20:42.699Z,61.10
2022-08-07T14:22:51.691Z,56.50
2022-08-07T14:25:24.231Z,54.80
2022-08-07T14:28:11.750Z,55.00
2022-08-07T14:30:52.190Z,56.10
2022-08-07T14:33:22.224Z,56.20
2022-08-07T14:35:58.513Z,57.60
2022-08-07T14:38:31.368Z,58.90
2022-08-07T14:41:14.906Z,58.20
2022-08-07T14:43:57.300Z,57.60
2022-08-07T14:46:32.525Z,58.90
2022-08-07T14:49:17.578Z,59.00
2022-08-07T14:52:03.641Z,61.20
2022-08-07T14:57:54.383Z,58.90
2022-08-07T15:00:20.760Z,59.50
2022-08-07T15:03:15.663Z,60.20
2022-08-07T15:05:55.295Z,57.50
2022-08-07T15:08:33.806Z,60.50
2022-08-07T15:11:02.701Z,60.20
2022-08-07T15:13:37.063Z,60.70
2022-08-07T15:16:10.814Z,62.80
2022-08-07T15:18:45.369Z,61.80
2022-08-07T15:21:59.462Z,62.10
2022-08-07T15:25:14.832Z,62.10
2022-08-07T15:27:05.873Z,61.90
2022-08-07T15:30:08.801Z,61.60
2022-08-07T15:32:39.438Z,62.90
2022-08-07T15:35:13.400Z,61.60
2022-08-07T15:40:34.478Z,61.50
2022-08-07T15:46:32.155Z,62.50
2022-08-07T15:49:16.753Z,63.00
2022-08-07T15:54:39.644Z,62.90
2022-08-07T15:57:39.807Z,64.00
2022-08-07T16:00:04.460Z,63.40
2022-08-07T16:02:41.231Z,63.80
2022-08-07T16:05:17.929Z,63.50
2022-08-07T16:08:30.793Z,63.80
2022-08-07T16:10:51.961Z,63.80
2022-08-07T16:13:59.128Z,64.60
2022-08-07T16:16:48.086Z,64.20
2022-08-07T16:19:18.340Z,65.10
2022-08-07T16:22:14.804Z,65.10
2022-08-07T16:25:23.410Z,64.80
2022-08-07T16:30:07.193Z,65.40
2022-08-07T16:31:51.451Z,65.70
2022-08-07T16:34:30.535Z,67.20
2022-08-07T16:37:02.660Z,66.80
2022-08-07T16:40:23.377Z,66.20
2022-08-07T16:43:07.435Z,66.40
2022-08-07T16:46:33.730Z,67.00
2022-08-07T16:50:27.790Z,66.00
2022-08-07T16:52:52.565Z,67.10
2022-08-07T16:55:46.991Z,66.80
2022-08-07T16:58:33.672Z,67.00
2022-08-07T17:01:34.257Z,66.30
2022-08-07T17:04:24.854Z,66.40
2022-08-07T17:07:05.212Z,67.70
2022-08-07T17:10:06.825Z,67.40
2022-08-07T17:12:42.280Z,67.40
2022-08-07T17:15:57.001Z,67.80
2022-08-07T17:19:16.470Z,67.30
2022-08-07T17:21:50.811Z,67.60
2022-08-07T17:24:28.718Z,67.50
2022-08-07T17:27:02.504Z,67.60
2022-08-07T17:30:15.860Z,68.00
2022-08-07T17:34:09.983Z,67.90
2022-08-07T17:36:03.300Z,67.90
2022-08-07T17:38:44.480Z,68.30
2022-08-07T17:42:01.524Z,67.40
2022-08-07T17:44:34.025Z,68.70
2022-08-07T17:47:16.595Z,68.50
2022-08-07T17:50:06.011Z,69.30
2022-08-07T17:52:43.567Z,69.40
2022-08-07T17:55:12.908Z,69.60
2022-08-07T17:57:59.012Z,69.90
2022-08-07T18:00:34.260Z,70.50
2022-08-07T18:03:54.054Z,71.20
2022-08-07T18:06:38.215Z,70.90
2022-08-07T18:09:08.529Z,71.20
2022-08-07T18:12:08.183Z,72.90
2022-08-07T18:14:49.743Z,71.40
2022-08-07T18:18:33.094Z,70.70
2022-08-07T18:21:08.887Z,71.10
2022-08-07T18:23:43.829Z,71.90
2022-08-07T18:26:18.045Z,73.00
2022-08-07T18:29:02.734Z,73.70
2022-08-07T18:31:50.254Z,74.10
2022-08-07T18:34:53.285Z,74.90
2022-08-07T18:38:57.297Z,74.20
2022-08-07T18:41:10.274Z,74.30
2022-08-07T18:44:00.664Z,74.10
2022-08-07T18:46:33.347Z,75.20
2022-08-07T18:50:30.967Z,75.30
2022-08-07T18:53:04.604Z,75.70
2022-08-07T18:55:57.367Z,76.30
2022-08-07T18:58:25.872Z,76.20
2022-08-07T19:02:19.301Z,77.10
2022-08-07T19:04:32.379Z,77.80
2022-08-07T19:07:36.230Z,76.30
2022-08-07T19:10:22.962Z,76.60
2022-08-07T19:13:11.674Z,77.40
2022-08-07T19:17:05.041Z,77.80
2022-08-07T19:19:42.886Z,78.30
2022-08-07T19:22:30.812Z,78.90
2022-08-07T19:25:06.423Z,78.60
2022-08-07T19:28:57.947Z,78.10
2022-08-07T19:30:58.092Z,79.60
2022-08-07T19:33:34.785Z,78.80
2022-08-07T19:36:04.101Z,77.20
2022-08-07T19:38:35.093Z,77.50
2022-08-07T19:41:44.182Z,77.50
2022-08-07T19:44:21.946Z,77.90
2022-08-07T19:46:55.565Z,79.20
2022-08-07T19:49:57.990Z,78.80
2022-08-07T19:52:18.445Z,78.40
2022-08-07T19:54:56.194Z,78.60
2022-08-07T19:58:01.299Z,78.70
2022-08-07T20:00:36.550Z,79.00
2022-08-07T20:03:33.625Z,78.30
2022-08-07T20:06:00.713Z,78.70
2022-08-07T20:08:31.539Z,79.00
2022-08-07T20:11:03.787Z,79.40
2022-08-07T20:13:45.217Z,79.40
2022-08-07T20:16:36.267Z,77.70
2022-08-07T20:19:10.372Z,77.90
2022-08-07T20:21:47.362Z,79.20
2022-08-07T20:24:20.566Z,78.70
2022-08-07T20:26:52.363Z,80.00
2022-08-07T20:29:46.636Z,79.80
2022-08-07T20:32:22.224Z,79.10
2022-08-07T20:34:57.473Z,80.50
2022-08-07T20:37:34.012Z,80.20
2022-08-07T20:40:32.787Z,80.00
2022-08-07T20:42:58.825Z,80.50
2022-08-07T20:45:33.248Z,79.80
2022-08-07T20:48:29.076Z,79.50
2022-08-07T20:51:02.886Z,79.40
2022-08-07T20:54:03.609Z,79.30
2022-08-07T20:56:27.288Z,79.40
2022-08-07T20:58:58.893Z,80.20
2022-08-07T21:01:29.746Z,81.20
2022-08-07T21:04:23.282Z,81.20
2022-08-07T21:06:55.389Z,80.10
2022-08-07T21:09:53.290Z,81.70
2022-08-07T21:12:29.017Z,81.70
2022-08-07T21:15:02.827Z,81.60
2022-08-07T21:18:02.674Z,82.70
2022-08-07T21:20:30.362Z,82.70
2022-08-07T21:23:08.449Z,82.90
2022-08-07T21:26:20.531Z,83.00
2022-08-07T21:28:50.940Z,83.10
2022-08-07T21:32:41.582Z,83.60
2022-08-07T21:34:26.752Z,83.50
2022-08-07T21:37:01.768Z,83.90
2022-08-07T21:40:06.153Z,84.10
2022-08-07T21:43:13.846Z,84.00
2022-08-07T21:46:09.502Z,84.20
2022-08-07T21:48:48.312Z,84.50
2022-08-07T21:51:32.265Z,84.40
2022-08-07T21:54:27.492Z,84.40
2022-08-07T21:57:39.602Z,84.70
2022-08-07T22:00:22.809Z,84.60
2022-08-07T22:03:03.523Z,84.60
2022-08-07T22:05:45.248Z,84.80
2022-08-07T22:08:18.838Z,84.90
2022-08-07T22:10:59.047Z,85.00
2022-08-07T22:13:52.922Z,84.80
2022-08-07T22:16:42.880Z,84.80
2022-08-07T22:19:46.398Z,84.90
2022-08-07T22:22:27.847Z,84.90
2022-08-07T22:25:07.576Z,85.00
2022-08-07T22:28:07.215Z,84.90
2022-08-07T22:30:31.782Z,85.00
2022-08-07T22:33:15.199Z,85.00
2022-08-07T22:36:06.802Z,85.00
2022-08-07T22:38:54.031Z,85.00
2022-08-07T22:42:03.878Z,84.90
2022-08-07T22:44:38.085Z,85.10
2022-08-07T22:48:31.713Z,84.90
2022-08-07T22:51:07.905Z,84.90
2022-08-07T22:54:07.709Z,84.80
2022-08-07T22:56:56.903Z,84.80
2022-08-07T22:59:45.371Z,84.70
2022-08-07T23:02:19.356Z,84.70
2022-08-07T23:06:08.681Z,84.90
2022-08-07T23:08:34.262Z,84.70
2022-08-07T23:11:19.758Z,84.70
2022-08-07T23:14:15.071Z,84.70
2022-08-07T23:17:00.859Z,84.70
2022-08-07T23:19:57.933Z,84.60
2022-08-07T23:22:32.642Z,84.50
2022-08-07T23:25:19.010Z,84.60
2022-08-07T23:28:22.948Z,84.90
2022-08-07T23:31:06.280Z,84.70
2022-08-07T23:34:19.741Z,84.70
2022-08-07T23:37:36.713Z,84.70
2022-08-07T23:40:56.598Z,84.60
2022-08-07T23:43:41.316Z,84.70
2022-08-07T23:46:43.113Z,84.60
2022-08-07T23:49:15.345Z,84.60
2022-08-07T23:52:58.956Z,84.50
2022-08-07T23:55:04.532Z,84.40
2022-08-07T23:57:44.010Z,84.40
